sensor_id;sensor_type;location;lat;lon;timestamp;P1;durP1;ratioP1;P2;durP2;ratioP2
15899;SDS011;8048;50.644;6.184;2022-12-07T00:01:33;20.63;;;15.43;;
15899;SDS011;8048;50.644;6.184;2022-12-07T00:03:59;17.20;;;12.73;;
15899;SDS011;8048;50.644;6.184;2022-12-07T00:06:33;45.83;;;16.67;;
15899;SDS011;8048;50.644;6.184;2022-12-07T00:09:04;27.57;;;15.00;;
15899;SDS011;8048;50.644;6.184;2022-12-07T00:11:31;21.43;;;13.90;;
15899;SDS011;8048;50.644;6.184;2022-12-07T00:13:57;26.03;;;16.00;;
15899;SDS011;8048;50.644;6.184;2022-12-07T00:16:27;23.37;;;17.53;;
15899;SDS011;8048;50.644;6.184;2022-12-07T00:18:54;22.97;;;14.60;;
15899;SDS011;8048;50.644;6.184;2022-12-07T00:21:20;15.40;;;12.40;;
15899;SDS011;8048;50.644;6.184;2022-12-07T00:23:48;27.50;;;15.73;;
15899;SDS011;8048;50.644;6.184;2022-12-07T00:26:16;18.13;;;13.87;;
15899;SDS011;8048;50.644;6.184;2022-12-07T00:28:55;19.67;;;16.43;;
15899;SDS011;8048;50.644;6.184;2022-12-07T00:31:24;22.93;;;13.60;;
15899;SDS011;8048;50.644;6.184;2022-12-07T00:33:52;20.23;;;14.00;;
15899;SDS011;8048;50.644;6.184;2022-12-07T00:36:19;19.57;;;13.87;;
15899;SDS011;8048;50.644;6.184;2022-12-07T00:38:46;27.70;;;13.70;;
15899;SDS011;8048;50.644;6.184;2022-12-07T00:41:13;16.33;;;12.20;;
15899;SDS011;8048;50.644;6.184;2022-12-07T00:43:40;23.50;;;13.63;;
15899;SDS011;8048;50.644;6.184;2022-12-07T00:46:08;44.60;;;17.67;;
15899;SDS011;8048;50.644;6.184;2022-12-07T00:51:02;35.90;;;15.27;;
15899;SDS011;8048;50.644;6.184;2022-12-07T00:53:29;29.50;;;14.73;;
15899;SDS011;8048;50.644;6.184;2022-12-07T00:55:55;23.20;;;14.23;;
15899;SDS011;8048;50.644;6.184;2022-12-07T00:58:21;24.90;;;14.40;;
15899;SDS011;8048;50.644;6.184;2022-12-07T01:00:48;24.50;;;12.93;;
15899;SDS011;8048;50.644;6.184;2022-12-07T01:03:14;17.10;;;11.70;;
15899;SDS011;8048;50.644;6.184;2022-12-07T01:05:40;23.93;;;14.07;;
15899;SDS011;8048;50.644;6.184;2022-12-07T01:08:18;38.17;;;12.57;;
15899;SDS011;8048;50.644;6.184;2022-12-07T01:10:44;37.93;;;13.00;;
15899;SDS011;8048;50.644;6.184;2022-12-07T01:13:10;17.47;;;13.40;;
15899;SDS011;8048;50.644;6.184;2022-12-07T01:15:38;31.40;;;13.60;;
15899;SDS011;8048;50.644;6.184;2022-12-07T01:18:05;27.83;;;12.97;;
15899;SDS011;8048;50.644;6.184;2022-12-07T01:20:30;12.60;;;11.40;;
15899;SDS011;8048;50.644;6.184;2022-12-07T01:22:56;30.83;;;13.13;;
15899;SDS011;8048;50.644;6.184;2022-12-07T01:25:21;19.23;;;14.30;;
15899;SDS011;8048;50.644;6.184;2022-12-07T01:27:47;18.97;;;12.73;;
15899;SDS011;8048;50.644;6.184;2022-12-07T01:30:13;21.50;;;13.83;;
15899;SDS011;8048;50.644;6.184;2022-12-07T01:32:38;39.50;;;17.20;;
15899;SDS011;8048;50.644;6.184;2022-12-07T01:35:04;21.10;;;13.67;;
15899;SDS011;8048;50.644;6.184;2022-12-07T01:37:33;17.63;;;14.57;;
15899;SDS011;8048;50.644;6.184;2022-12-07T01:40:03;20.73;;;13.50;;
15899;SDS011;8048;50.644;6.184;2022-12-07T01:42:30;36.63;;;16.90;;
15899;SDS011;8048;50.644;6.184;2022-12-07T01:47:43;26.77;;;16.70;;
15899;SDS011;8048;50.644;6.184;2022-12-07T01:50:13;31.67;;;18.87;;
15899;SDS011;8048;50.644;6.184;2022-12-07T01:52:39;16.37;;;13.27;;
15899;SDS011;8048;50.644;6.184;2022-12-07T01:55:10;25.40;;;15.30;;
15899;SDS011;8048;50.644;6.184;2022-12-07T01:57:43;22.43;;;14.17;;
15899;SDS011;8048;50.644;6.184;2022-12-07T02:00:13;26.43;;;14.73;;
15899;SDS011;8048;50.644;6.184;2022-12-07T02:02:43;47.43;;;18.60;;
15899;SDS011;8048;50.644;6.184;2022-12-07T02:05:21;66.00;;;17.63;;
15899;SDS011;8048;50.644;6.184;2022-12-07T02:07:49;43.57;;;16.73;;
15899;SDS011;8048;50.644;6.184;2022-12-07T02:10:18;23.63;;;14.23;;
15899;SDS011;8048;50.644;6.184;2022-12-07T02:12:46;28.37;;;16.57;;
15899;SDS011;8048;50.644;6.184;2022-12-07T02:15:16;27.60;;;17.37;;
15899;SDS011;8048;50.644;6.184;2022-12-07T02:20:39;34.13;;;14.77;;
15899;SDS011;8048;50.644;6.184;2022-12-07T02:26:42;26.43;;;14.53;;
15899;SDS011;8048;50.644;6.184;2022-12-07T02:29:32;40.60;;;15.63;;
15899;SDS011;8048;50.644;6.184;2022-12-07T02:32:16;28.60;;;17.13;;
15899;SDS011;8048;50.644;6.184;2022-12-07T02:35:09;26.73;;;16.00;;
15899;SDS011;8048;50.644;6.184;2022-12-07T02:37:58;43.47;;;17.00;;
15899;SDS011;8048;50.644;6.184;2022-12-07T02:40:40;23.20;;;14.40;;
15899;SDS011;8048;50.644;6.184;2022-12-07T02:43:30;30.30;;;15.83;;
15899;SDS011;8048;50.644;6.184;2022-12-07T02:46:08;34.27;;;16.03;;
15899;SDS011;8048;50.644;6.184;2022-12-07T02:48:40;23.23;;;14.63;;
15899;SDS011;8048;50.644;6.184;2022-12-07T02:51:07;29.17;;;14.53;;
15899;SDS011;8048;50.644;6.184;2022-12-07T03:07:00;74.77;;;19.50;;
15899;SDS011;8048;50.644;6.184;2022-12-07T03:09:37;22.07;;;17.50;;
15899;SDS011;8048;50.644;6.184;2022-12-07T03:12:14;38.30;;;17.03;;
15899;SDS011;8048;50.644;6.184;2022-12-07T03:14:50;22.63;;;17.50;;
15899;SDS011;8048;50.644;6.184;2022-12-07T03:17:24;46.13;;;19.37;;
15899;SDS011;8048;50.644;6.184;2022-12-07T03:19:54;123.60;;;30.47;;
15899;SDS011;8048;50.644;6.184;2022-12-07T03:22:23;25.77;;;14.40;;
15899;SDS011;8048;50.644;6.184;2022-12-07T03:24:54;24.43;;;16.83;;
15899;SDS011;8048;50.644;6.184;2022-12-07T03:27:31;46.43;;;18.23;;
15899;SDS011;8048;50.644;6.184;2022-12-07T03:30:04;42.20;;;17.73;;
15899;SDS011;8048;50.644;6.184;2022-12-07T03:32:33;38.60;;;18.37;;
15899;SDS011;8048;50.644;6.184;2022-12-07T03:35:04;38.00;;;17.00;;
15899;SDS011;8048;50.644;6.184;2022-12-07T03:37:38;35.67;;;15.83;;
15899;SDS011;8048;50.644;6.184;2022-12-07T03:40:19;20.00;;;13.07;;
15899;SDS011;8048;50.644;6.184;2022-12-07T03:42:51;21.13;;;14.20;;
15899;SDS011;8048;50.644;6.184;2022-12-07T03:45:17;36.20;;;17.43;;
15899;SDS011;8048;50.644;6.184;2022-12-07T03:50:54;23.40;;;15.00;;
15899;SDS011;8048;50.644;6.184;2022-12-07T03:53:29;20.03;;;15.90;;
15899;SDS011;8048;50.644;6.184;2022-12-07T03:56:00;63.40;;;18.93;;
15899;SDS011;8048;50.644;6.184;2022-12-07T03:58:26;33.63;;;16.47;;
15899;SDS011;8048;50.644;6.184;2022-12-07T04:00:52;17.63;;;12.97;;
15899;SDS011;8048;50.644;6.184;2022-12-07T04:03:18;44.37;;;17.70;;
15899;SDS011;8048;50.644;6.184;2022-12-07T04:05:44;23.97;;;14.77;;
15899;SDS011;8048;50.644;6.184;2022-12-07T04:08:09;23.60;;;16.47;;
15899;SDS011;8048;50.644;6.184;2022-12-07T04:10:35;25.67;;;15.77;;
15899;SDS011;8048;50.644;6.184;2022-12-07T04:13:01;18.83;;;13.70;;
15899;SDS011;8048;50.644;6.184;2022-12-07T04:15:26;26.80;;;13.70;;
15899;SDS011;8048;50.644;6.184;2022-12-07T04:17:52;19.97;;;13.90;;
15899;SDS011;8048;50.644;6.184;2022-12-07T04:20:19;22.63;;;13.83;;
15899;SDS011;8048;50.644;6.184;2022-12-07T04:22:45;16.50;;;13.10;;
15899;SDS011;8048;50.644;6.184;2022-12-07T04:25:11;15.97;;;12.60;;
15899;SDS011;8048;50.644;6.184;2022-12-07T04:27:37;51.97;;;17.00;;
15899;SDS011;8048;50.644;6.184;2022-12-07T04:30:02;39.87;;;15.27;;
15899;SDS011;8048;50.644;6.184;2022-12-07T04:32:28;19.33;;;13.00;;
15899;SDS011;8048;50.644;6.184;2022-12-07T04:34:54;18.33;;;13.50;;
15899;SDS011;8048;50.644;6.184;2022-12-07T04:37:19;29.33;;;14.70;;
15899;SDS011;8048;50.644;6.184;2022-12-07T04:39:45;18.90;;;14.20;;
15899;SDS011;8048;50.644;6.184;2022-12-07T04:42:11;27.67;;;15.57;;
15899;SDS011;8048;50.644;6.184;2022-12-07T04:44:37;31.60;;;14.53;;
15899;SDS011;8048;50.644;6.184;2022-12-07T04:47:03;19.83;;;15.47;;
15899;SDS011;8048;50.644;6.184;2022-12-07T04:49:29;20.80;;;14.07;;
15899;SDS011;8048;50.644;6.184;2022-12-07T04:51:54;18.47;;;14.90;;
15899;SDS011;8048;50.644;6.184;2022-12-07T04:54:20;41.67;;;20.57;;
15899;SDS011;8048;50.644;6.184;2022-12-07T04:56:46;21.17;;;13.80;;
15899;SDS011;8048;50.644;6.184;2022-12-07T04:59:12;42.10;;;20.90;;
15899;SDS011;8048;50.644;6.184;2022-12-07T05:01:38;28.00;;;18.77;;
15899;SDS011;8048;50.644;6.184;2022-12-07T05:04:04;60.10;;;29.43;;
15899;SDS011;8048;50.644;6.184;2022-12-07T05:06:30;38.43;;;17.53;;
15899;SDS011;8048;50.644;6.184;2022-12-07T05:08:55;35.13;;;19.30;;
15899;SDS011;8048;50.644;6.184;2022-12-07T05:11:21;17.83;;;12.67;;
15899;SDS011;8048;50.644;6.184;2022-12-07T05:16:33;68.33;;;31.70;;
15899;SDS011;8048;50.644;6.184;2022-12-07T05:18:59;43.00;;;23.13;;
15899;SDS011;8048;50.644;6.184;2022-12-07T05:21:25;26.17;;;15.73;;
15899;SDS011;8048;50.644;6.184;2022-12-07T05:23:50;19.30;;;13.87;;
15899;SDS011;8048;50.644;6.184;2022-12-07T05:26:16;25.50;;;15.70;;
15899;SDS011;8048;50.644;6.184;2022-12-07T05:28:42;32.27;;;15.40;;
15899;SDS011;8048;50.644;6.184;2022-12-07T05:31:08;19.00;;;14.33;;
15899;SDS011;8048;50.644;6.184;2022-12-07T05:33:33;27.17;;;15.20;;
15899;SDS011;8048;50.644;6.184;2022-12-07T05:35:59;25.70;;;15.17;;
15899;SDS011;8048;50.644;6.184;2022-12-07T05:38:30;17.67;;;12.70;;
15899;SDS011;8048;50.644;6.184;2022-12-07T05:40:59;21.80;;;17.00;;
15899;SDS011;8048;50.644;6.184;2022-12-07T05:43:26;25.70;;;15.20;;
15899;SDS011;8048;50.644;6.184;2022-12-07T05:45:52;26.87;;;17.80;;
15899;SDS011;8048;50.644;6.184;2022-12-07T05:48:17;59.97;;;19.00;;
15899;SDS011;8048;50.644;6.184;2022-12-07T05:50:43;43.47;;;15.90;;
15899;SDS011;8048;50.644;6.184;2022-12-07T05:53:08;38.27;;;14.23;;
15899;SDS011;8048;50.644;6.184;2022-12-07T05:55:34;29.50;;;13.03;;
15899;SDS011;8048;50.644;6.184;2022-12-07T05:57:59;19.73;;;13.33;;
15899;SDS011;8048;50.644;6.184;2022-12-07T06:00:43;18.63;;;12.57;;
15899;SDS011;8048;50.644;6.184;2022-12-07T06:03:09;20.63;;;12.83;;
15899;SDS011;8048;50.644;6.184;2022-12-07T06:05:34;18.10;;;12.33;;
15899;SDS011;8048;50.644;6.184;2022-12-07T06:08:00;15.57;;;10.97;;
15899;SDS011;8048;50.644;6.184;2022-12-07T06:10:25;18.60;;;11.87;;
15899;SDS011;8048;50.644;6.184;2022-12-07T06:12:51;12.00;;;10.43;;
15899;SDS011;8048;50.644;6.184;2022-12-07T06:15:16;14.83;;;10.50;;
15899;SDS011;8048;50.644;6.184;2022-12-07T06:17:42;15.77;;;10.70;;
15899;SDS011;8048;50.644;6.184;2022-12-07T06:20:07;15.20;;;8.87;;
15899;SDS011;8048;50.644;6.184;2022-12-07T06:22:33;10.70;;;8.43;;
15899;SDS011;8048;50.644;6.184;2022-12-07T06:24:58;14.50;;;9.63;;
15899;SDS011;8048;50.644;6.184;2022-12-07T06:27:24;11.27;;;10.17;;
15899;SDS011;8048;50.644;6.184;2022-12-07T06:29:49;11.40;;;9.97;;
15899;SDS011;8048;50.644;6.184;2022-12-07T06:32:15;11.63;;;8.50;;
15899;SDS011;8048;50.644;6.184;2022-12-07T06:34:41;10.63;;;9.10;;
15899;SDS011;8048;50.644;6.184;2022-12-07T06:37:07;11.13;;;8.00;;
15899;SDS011;8048;50.644;6.184;2022-12-07T06:39:32;13.47;;;9.60;;
15899;SDS011;8048;50.644;6.184;2022-12-07T06:41:58;9.33;;;8.43;;
15899;SDS011;8048;50.644;6.184;2022-12-07T06:44:24;17.67;;;11.57;;
15899;SDS011;8048;50.644;6.184;2022-12-07T06:46:50;12.27;;;9.80;;
15899;SDS011;8048;50.644;6.184;2022-12-07T06:49:16;13.47;;;10.50;;
15899;SDS011;8048;50.644;6.184;2022-12-07T06:51:42;18.33;;;12.60;;
15899;SDS011;8048;50.644;6.184;2022-12-07T06:54:08;17.60;;;12.17;;
15899;SDS011;8048;50.644;6.184;2022-12-07T06:56:38;15.30;;;10.43;;
15899;SDS011;8048;50.644;6.184;2022-12-07T06:59:04;18.33;;;12.00;;
15899;SDS011;8048;50.644;6.184;2022-12-07T07:01:31;16.53;;;11.80;;
15899;SDS011;8048;50.644;6.184;2022-12-07T07:03:57;13.50;;;10.50;;
15899;SDS011;8048;50.644;6.184;2022-12-07T07:06:23;16.30;;;11.87;;
15899;SDS011;8048;50.644;6.184;2022-12-07T07:08:49;14.77;;;11.10;;
15899;SDS011;8048;50.644;6.184;2022-12-07T07:11:14;22.60;;;13.13;;
15899;SDS011;8048;50.644;6.184;2022-12-07T07:13:40;18.07;;;13.60;;
15899;SDS011;8048;50.644;6.184;2022-12-07T07:16:06;16.40;;;10.90;;
15899;SDS011;8048;50.644;6.184;2022-12-07T07:18:32;20.93;;;13.17;;
15899;SDS011;8048;50.644;6.184;2022-12-07T07:20:58;17.47;;;12.47;;
15899;SDS011;8048;50.644;6.184;2022-12-07T07:23:23;14.27;;;11.60;;
15899;SDS011;8048;50.644;6.184;2022-12-07T07:25:49;15.20;;;10.73;;
15899;SDS011;8048;50.644;6.184;2022-12-07T07:28:15;12.57;;;9.73;;
15899;SDS011;8048;50.644;6.184;2022-12-07T07:30:41;23.47;;;14.77;;
15899;SDS011;8048;50.644;6.184;2022-12-07T07:33:06;42.60;;;20.60;;
15899;SDS011;8048;50.644;6.184;2022-12-07T07:35:32;23.80;;;14.83;;
15899;SDS011;8048;50.644;6.184;2022-12-07T07:37:58;16.17;;;9.10;;
15899;SDS011;8048;50.644;6.184;2022-12-07T07:40:24;17.47;;;10.00;;
15899;SDS011;8048;50.644;6.184;2022-12-07T07:42:50;15.17;;;10.80;;
15899;SDS011;8048;50.644;6.184;2022-12-07T07:45:17;14.07;;;9.43;;
15899;SDS011;8048;50.644;6.184;2022-12-07T07:47:43;13.20;;;10.47;;
15899;SDS011;8048;50.644;6.184;2022-12-07T07:50:09;15.70;;;10.63;;
15899;SDS011;8048;50.644;6.184;2022-12-07T07:52:35;17.17;;;10.90;;
15899;SDS011;8048;50.644;6.184;2022-12-07T07:55:00;19.60;;;13.40;;
15899;SDS011;8048;50.644;6.184;2022-12-07T07:57:26;14.47;;;9.77;;
15899;SDS011;8048;50.644;6.184;2022-12-07T07:59:52;18.00;;;11.50;;
15899;SDS011;8048;50.644;6.184;2022-12-07T08:02:18;23.80;;;13.50;;
15899;SDS011;8048;50.644;6.184;2022-12-07T08:04:45;20.80;;;11.47;;
15899;SDS011;8048;50.644;6.184;2022-12-07T08:07:11;15.97;;;8.27;;
15899;SDS011;8048;50.644;6.184;2022-12-07T08:09:37;8.57;;;7.30;;
15899;SDS011;8048;50.644;6.184;2022-12-07T08:12:03;10.33;;;6.70;;
15899;SDS011;8048;50.644;6.184;2022-12-07T08:14:29;7.83;;;6.10;;
15899;SDS011;8048;50.644;6.184;2022-12-07T08:16:55;6.93;;;5.93;;
15899;SDS011;8048;50.644;6.184;2022-12-07T08:19:21;10.40;;;6.97;;
15899;SDS011;8048;50.644;6.184;2022-12-07T08:21:46;11.10;;;7.00;;
15899;SDS011;8048;50.644;6.184;2022-12-07T08:24:12;7.93;;;6.13;;
15899;SDS011;8048;50.644;6.184;2022-12-07T08:26:38;10.33;;;7.40;;
15899;SDS011;8048;50.644;6.184;2022-12-07T08:29:03;11.97;;;7.57;;
15899;SDS011;8048;50.644;6.184;2022-12-07T08:31:29;8.77;;;7.10;;
15899;SDS011;8048;50.644;6.184;2022-12-07T08:33:55;10.47;;;6.93;;
15899;SDS011;8048;50.644;6.184;2022-12-07T08:36:20;10.53;;;8.13;;
15899;SDS011;8048;50.644;6.184;2022-12-07T08:38:47;13.73;;;9.10;;
15899;SDS011;8048;50.644;6.184;2022-12-07T08:41:13;9.33;;;7.10;;
15899;SDS011;8048;50.644;6.184;2022-12-07T08:43:39;11.17;;;8.77;;
15899;SDS011;8048;50.644;6.184;2022-12-07T08:46:13;12.00;;;8.60;;
15899;SDS011;8048;50.644;6.184;2022-12-07T08:48:46;13.80;;;9.20;;
15899;SDS011;8048;50.644;6.184;2022-12-07T08:51:15;16.23;;;10.70;;
15899;SDS011;8048;50.644;6.184;2022-12-07T08:53:41;16.13;;;10.57;;
15899;SDS011;8048;50.644;6.184;2022-12-07T08:56:08;13.43;;;9.03;;
15899;SDS011;8048;50.644;6.184;2022-12-07T08:58:34;10.97;;;9.40;;
15899;SDS011;8048;50.644;6.184;2022-12-07T09:01:02;14.70;;;9.47;;
15899;SDS011;8048;50.644;6.184;2022-12-07T09:03:27;11.87;;;10.67;;
15899;SDS011;8048;50.644;6.184;2022-12-07T09:05:53;11.23;;;7.63;;
15899;SDS011;8048;50.644;6.184;2022-12-07T09:08:20;13.77;;;9.00;;
15899;SDS011;8048;50.644;6.184;2022-12-07T09:10:47;14.07;;;9.30;;
15899;SDS011;8048;50.644;6.184;2022-12-07T09:13:12;12.50;;;9.80;;
15899;SDS011;8048;50.644;6.184;2022-12-07T09:15:38;15.03;;;10.90;;
15899;SDS011;8048;50.644;6.184;2022-12-07T09:18:04;16.23;;;9.90;;
15899;SDS011;8048;50.644;6.184;2022-12-07T09:20:29;13.17;;;10.70;;
15899;SDS011;8048;50.644;6.184;2022-12-07T09:22:55;14.63;;;9.90;;
15899;SDS011;8048;50.644;6.184;2022-12-07T09:25:21;13.47;;;9.97;;
15899;SDS011;8048;50.644;6.184;2022-12-07T09:27:46;13.70;;;11.47;;
15899;SDS011;8048;50.644;6.184;2022-12-07T09:30:12;13.20;;;9.83;;
15899;SDS011;8048;50.644;6.184;2022-12-07T09:32:38;13.00;;;10.37;;
15899;SDS011;8048;50.644;6.184;2022-12-07T09:35:03;11.10;;;8.77;;
15899;SDS011;8048;50.644;6.184;2022-12-07T09:37:29;14.90;;;8.80;;
15899;SDS011;8048;50.644;6.184;2022-12-07T09:39:59;18.10;;;10.40;;
15899;SDS011;8048;50.644;6.184;2022-12-07T09:42:30;14.63;;;10.20;;
15899;SDS011;8048;50.644;6.184;2022-12-07T09:45:00;12.00;;;7.40;;
15899;SDS011;8048;50.644;6.184;2022-12-07T09:47:26;20.30;;;11.83;;
15899;SDS011;8048;50.644;6.184;2022-12-07T09:49:54;37.03;;;16.57;;
15899;SDS011;8048;50.644;6.184;2022-12-07T09:52:28;13.23;;;9.30;;
15899;SDS011;8048;50.644;6.184;2022-12-07T09:54:54;19.17;;;12.17;;
15899;SDS011;8048;50.644;6.184;2022-12-07T09:57:30;23.33;;;13.07;;
15899;SDS011;8048;50.644;6.184;2022-12-07T10:00:00;18.10;;;14.57;;
15899;SDS011;8048;50.644;6.184;2022-12-07T10:02:46;24.20;;;13.73;;
15899;SDS011;8048;50.644;6.184;2022-12-07T10:05:13;21.17;;;13.07;;
15899;SDS011;8048;50.644;6.184;2022-12-07T10:07:43;20.23;;;12.73;;
15899;SDS011;8048;50.644;6.184;2022-12-07T10:10:14;20.03;;;13.00;;
15899;SDS011;8048;50.644;6.184;2022-12-07T10:12:57;21.70;;;11.70;;
15899;SDS011;8048;50.644;6.184;2022-12-07T10:15:42;20.33;;;13.13;;
15899;SDS011;8048;50.644;6.184;2022-12-07T10:21:10;21.43;;;14.30;;
15899;SDS011;8048;50.644;6.184;2022-12-07T10:26:28;23.27;;;15.40;;
15899;SDS011;8048;50.644;6.184;2022-12-07T10:28:59;20.17;;;14.97;;
15899;SDS011;8048;50.644;6.184;2022-12-07T10:31:38;17.93;;;12.53;;
15899;SDS011;8048;50.644;6.184;2022-12-07T10:34:12;24.83;;;12.20;;
15899;SDS011;8048;50.644;6.184;2022-12-07T10:37:33;17.00;;;12.57;;
15899;SDS011;8048;50.644;6.184;2022-12-07T10:39:53;19.03;;;13.50;;
15899;SDS011;8048;50.644;6.184;2022-12-07T10:42:29;18.03;;;14.17;;
15899;SDS011;8048;50.644;6.184;2022-12-07T10:45:16;20.80;;;14.13;;
15899;SDS011;8048;50.644;6.184;2022-12-07T10:47:58;23.03;;;15.40;;
15899;SDS011;8048;50.644;6.184;2022-12-07T10:56:25;17.87;;;12.63;;
15899;SDS011;8048;50.644;6.184;2022-12-07T11:04:43;21.87;;;14.13;;
15899;SDS011;8048;50.644;6.184;2022-12-07T11:07:37;21.60;;;14.77;;
15899;SDS011;8048;50.644;6.184;2022-12-07T11:13:01;20.17;;;13.47;;
15899;SDS011;8048;50.644;6.184;2022-12-07T11:18:13;17.50;;;13.40;;
15899;SDS011;8048;50.644;6.184;2022-12-07T11:21:07;20.30;;;12.57;;
15899;SDS011;8048;50.644;6.184;2022-12-07T11:26:48;18.77;;;12.57;;
15899;SDS011;8048;50.644;6.184;2022-12-07T11:37:48;15.60;;;11.90;;
15899;SDS011;8048;50.644;6.184;2022-12-07T11:43:05;17.97;;;14.83;;
15899;SDS011;8048;50.644;6.184;2022-12-07T11:45:58;25.13;;;13.10;;
15899;SDS011;8048;50.644;6.184;2022-12-07T11:48:32;12.50;;;11.17;;
15899;SDS011;8048;50.644;6.184;2022-12-07T11:51:00;12.23;;;10.43;;
15899;SDS011;8048;50.644;6.184;2022-12-07T11:53:31;24.27;;;14.03;;
15899;SDS011;8048;50.644;6.184;2022-12-07T11:56:10;16.20;;;12.73;;
15899;SDS011;8048;50.644;6.184;2022-12-07T11:58:42;14.60;;;10.63;;
15899;SDS011;8048;50.644;6.184;2022-12-07T12:09:06;15.10;;;11.73;;
15899;SDS011;8048;50.644;6.184;2022-12-07T12:17:23;22.50;;;10.97;;
15899;SDS011;8048;50.644;6.184;2022-12-07T12:25:34;30.93;;;17.43;;
15899;SDS011;8048;50.644;6.184;2022-12-07T12:31:14;16.17;;;12.17;;
15899;SDS011;8048;50.644;6.184;2022-12-07T12:33:49;22.47;;;14.17;;
15899;SDS011;8048;50.644;6.184;2022-12-07T12:44:00;11.33;;;10.23;;
15899;SDS011;8048;50.644;6.184;2022-12-07T12:51:43;14.50;;;10.40;;
15899;SDS011;8048;50.644;6.184;2022-12-07T12:56:47;9.67;;;8.50;;
15899;SDS011;8048;50.644;6.184;2022-12-07T13:15:39;10.10;;;9.07;;
15899;SDS011;8048;50.644;6.184;2022-12-07T13:23:38;9.47;;;8.57;;
15899;SDS011;8048;50.644;6.184;2022-12-07T13:26:20;12.00;;;8.70;;
15899;SDS011;8048;50.644;6.184;2022-12-07T13:34:26;9.17;;;8.23;;
15899;SDS011;8048;50.644;6.184;2022-12-07T13:36:45;9.43;;;7.57;;
15899;SDS011;8048;50.644;6.184;2022-12-07T13:39:16;11.80;;;6.20;;
15899;SDS011;8048;50.644;6.184;2022-12-07T13:41:44;12.43;;;7.77;;
15899;SDS011;8048;50.644;6.184;2022-12-07T13:44:14;10.60;;;7.67;;
15899;SDS011;8048;50.644;6.184;2022-12-07T13:49:23;10.27;;;9.17;;
15899;SDS011;8048;50.644;6.184;2022-12-07T13:51:51;10.90;;;9.13;;
15899;SDS011;8048;50.644;6.184;2022-12-07T13:54:17;12.67;;;9.17;;
15899;SDS011;8048;50.644;6.184;2022-12-07T13:56:46;10.93;;;9.00;;
15899;SDS011;8048;50.644;6.184;2022-12-07T13:59:16;8.73;;;7.40;;
15899;SDS011;8048;50.644;6.184;2022-12-07T14:01:50;9.77;;;8.10;;
15899;SDS011;8048;50.644;6.184;2022-12-07T14:07:00;11.40;;;10.20;;
15899;SDS011;8048;50.644;6.184;2022-12-07T14:09:27;11.73;;;10.47;;
15899;SDS011;8048;50.644;6.184;2022-12-07T14:11:54;10.23;;;8.97;;
15899;SDS011;8048;50.644;6.184;2022-12-07T14:14:22;11.20;;;9.37;;
15899;SDS011;8048;50.644;6.184;2022-12-07T14:16:58;13.30;;;9.87;;
15899;SDS011;8048;50.644;6.184;2022-12-07T14:22:30;11.90;;;8.87;;
15899;SDS011;8048;50.644;6.184;2022-12-07T14:27:34;10.90;;;9.37;;
15899;SDS011;8048;50.644;6.184;2022-12-07T14:30:00;9.53;;;8.53;;
15899;SDS011;8048;50.644;6.184;2022-12-07T14:32:27;9.50;;;8.47;;
15899;SDS011;8048;50.644;6.184;2022-12-07T14:35:10;14.67;;;10.17;;
15899;SDS011;8048;50.644;6.184;2022-12-07T14:37:38;14.30;;;8.80;;
15899;SDS011;8048;50.644;6.184;2022-12-07T14:40:05;10.80;;;9.70;;
15899;SDS011;8048;50.644;6.184;2022-12-07T14:42:31;13.33;;;9.40;;
15899;SDS011;8048;50.644;6.184;2022-12-07T14:44:59;11.97;;;8.60;;
15899;SDS011;8048;50.644;6.184;2022-12-07T14:47:25;12.67;;;7.80;;
15899;SDS011;8048;50.644;6.184;2022-12-07T14:49:51;12.90;;;8.30;;
15899;SDS011;8048;50.644;6.184;2022-12-07T14:52:18;9.20;;;8.30;;
15899;SDS011;8048;50.644;6.184;2022-12-07T14:54:46;9.00;;;8.10;;
15899;SDS011;8048;50.644;6.184;2022-12-07T14:57:11;8.30;;;7.70;;
15899;SDS011;8048;50.644;6.184;2022-12-07T14:59:37;10.60;;;8.07;;
15899;SDS011;8048;50.644;6.184;2022-12-07T15:02:03;11.00;;;8.43;;
15899;SDS011;8048;50.644;6.184;2022-12-07T15:04:29;9.50;;;7.80;;
15899;SDS011;8048;50.644;6.184;2022-12-07T15:06:58;8.73;;;7.43;;
15899;SDS011;8048;50.644;6.184;2022-12-07T15:09:25;10.80;;;7.23;;
15899;SDS011;8048;50.644;6.184;2022-12-07T15:11:51;9.10;;;8.23;;
15899;SDS011;8048;50.644;6.184;2022-12-07T15:14:17;10.90;;;8.57;;
15899;SDS011;8048;50.644;6.184;2022-12-07T15:16:42;14.37;;;8.37;;
15899;SDS011;8048;50.644;6.184;2022-12-07T15:19:15;11.63;;;8.50;;
15899;SDS011;8048;50.644;6.184;2022-12-07T15:21:47;13.07;;;9.00;;
15899;SDS011;8048;50.644;6.184;2022-12-07T15:24:13;8.33;;;7.43;;
15899;SDS011;8048;50.644;6.184;2022-12-07T15:26:39;10.03;;;7.10;;
15899;SDS011;8048;50.644;6.184;2022-12-07T15:29:05;17.73;;;12.23;;
15899;SDS011;8048;50.644;6.184;2022-12-07T15:31:31;19.90;;;12.30;;
15899;SDS011;8048;50.644;6.184;2022-12-07T15:33:57;21.10;;;14.83;;
15899;SDS011;8048;50.644;6.184;2022-12-07T15:36:24;14.57;;;9.23;;
15899;SDS011;8048;50.644;6.184;2022-12-07T15:38:51;15.13;;;9.03;;
15899;SDS011;8048;50.644;6.184;2022-12-07T15:41:18;10.53;;;9.43;;
15899;SDS011;8048;50.644;6.184;2022-12-07T15:43:44;23.60;;;15.73;;
15899;SDS011;8048;50.644;6.184;2022-12-07T15:46:29;16.47;;;14.70;;
15899;SDS011;8048;50.644;6.184;2022-12-07T15:48:55;10.83;;;8.63;;
15899;SDS011;8048;50.644;6.184;2022-12-07T15:51:21;9.10;;;7.67;;
15899;SDS011;8048;50.644;6.184;2022-12-07T15:53:46;7.60;;;6.60;;
15899;SDS011;8048;50.644;6.184;2022-12-07T15:56:12;7.40;;;6.63;;
15899;SDS011;8048;50.644;6.184;2022-12-07T15:58:37;10.33;;;8.13;;
15899;SDS011;8048;50.644;6.184;2022-12-07T16:01:10;10.33;;;7.60;;
15899;SDS011;8048;50.644;6.184;2022-12-07T16:03:39;9.73;;;7.00;;
15899;SDS011;8048;50.644;6.184;2022-12-07T16:06:05;8.00;;;7.20;;
15899;SDS011;8048;50.644;6.184;2022-12-07T16:08:31;8.47;;;6.43;;
15899;SDS011;8048;50.644;6.184;2022-12-07T16:10:57;8.80;;;6.50;;
15899;SDS011;8048;50.644;6.184;2022-12-07T16:13:22;9.63;;;7.47;;
15899;SDS011;8048;50.644;6.184;2022-12-07T16:15:48;9.97;;;7.47;;
15899;SDS011;8048;50.644;6.184;2022-12-07T16:18:13;16.43;;;7.90;;
15899;SDS011;8048;50.644;6.184;2022-12-07T16:20:39;7.27;;;5.77;;
15899;SDS011;8048;50.644;6.184;2022-12-07T16:23:05;8.60;;;6.50;;
15899;SDS011;8048;50.644;6.184;2022-12-07T16:25:32;8.50;;;7.60;;
15899;SDS011;8048;50.644;6.184;2022-12-07T16:27:58;9.10;;;7.73;;
15899;SDS011;8048;50.644;6.184;2022-12-07T16:30:23;11.03;;;8.90;;
15899;SDS011;8048;50.644;6.184;2022-12-07T16:32:50;12.63;;;8.30;;
15899;SDS011;8048;50.644;6.184;2022-12-07T16:35:16;11.00;;;7.33;;
15899;SDS011;8048;50.644;6.184;2022-12-07T16:37:42;10.50;;;8.37;;
15899;SDS011;8048;50.644;6.184;2022-12-07T16:40:08;13.87;;;8.33;;
15899;SDS011;8048;50.644;6.184;2022-12-07T16:42:34;13.87;;;9.10;;
15899;SDS011;8048;50.644;6.184;2022-12-07T16:45:00;9.47;;;8.00;;
15899;SDS011;8048;50.644;6.184;2022-12-07T16:47:26;10.70;;;7.80;;
15899;SDS011;8048;50.644;6.184;2022-12-07T16:49:52;9.20;;;7.20;;
15899;SDS011;8048;50.644;6.184;2022-12-07T16:52:18;10.63;;;9.30;;
15899;SDS011;8048;50.644;6.184;2022-12-07T16:54:44;10.60;;;7.43;;
15899;SDS011;8048;50.644;6.184;2022-12-07T16:57:10;8.10;;;7.10;;
15899;SDS011;8048;50.644;6.184;2022-12-07T16:59:36;10.77;;;6.97;;
15899;SDS011;8048;50.644;6.184;2022-12-07T17:02:01;9.50;;;8.10;;
15899;SDS011;8048;50.644;6.184;2022-12-07T17:04:28;10.67;;;8.07;;
15899;SDS011;8048;50.644;6.184;2022-12-07T17:06:54;10.20;;;7.50;;
15899;SDS011;8048;50.644;6.184;2022-12-07T17:09:19;9.20;;;8.30;;
15899;SDS011;8048;50.644;6.184;2022-12-07T17:11:45;11.70;;;7.40;;
15899;SDS011;8048;50.644;6.184;2022-12-07T17:14:11;14.83;;;10.03;;